createdAt,value
2018-05-24T00:00:58.008Z,16.80
2018-05-24T00:03:25.564Z,17.57
2018-05-24T00:05:53.136Z,17.57
2018-05-24T00:08:20.673Z,18.50
2018-05-24T00:10:48.245Z,17.53
2018-05-24T00:13:15.798Z,17.47
2018-05-24T00:15:43.383Z,16.27
2018-05-24T00:18:10.928Z,16.90
2018-05-24T00:20:38.516Z,18.30
2018-05-24T00:23:06.841Z,19.50
2018-05-24T00:25:34.421Z,20.73
2018-05-24T00:28:01.993Z,18.33
2018-05-24T00:30:29.569Z,17.97
2018-05-24T00:32:57.878Z,19.60
2018-05-24T00:35:25.497Z,18.37
2018-05-24T00:37:53.082Z,17.70
2018-05-24T00:40:21.449Z,16.73
2018-05-24T00:42:49.760Z,18.13
2018-05-24T00:45:17.337Z,17.30
2018-05-24T00:47:44.910Z,17.30
2018-05-24T00:50:12.486Z,17.70
2018-05-24T00:52:40.079Z,17.90
2018-05-24T00:55:20.246Z,18.93
2018-05-24T00:57:47.805Z,19.10
2018-05-24T01:00:15.377Z,20.43
2018-05-24T01:02:42.932Z,19.83
2018-05-24T01:05:10.509Z,20.90
2018-05-24T01:07:38.052Z,18.47
2018-05-24T01:10:05.622Z,19.10
2018-05-24T01:12:33.166Z,17.60
2018-05-24T01:15:00.738Z,18.70
2018-05-24T01:17:28.288Z,19.03
2018-05-24T01:19:55.869Z,20.73
2018-05-24T01:22:23.414Z,22.60
2018-05-24T01:24:51.785Z,21.73
2018-05-24T01:27:19.339Z,23.40
2018-05-24T01:29:47.676Z,25.53
2018-05-24T01:32:15.236Z,25.20
2018-05-24T01:34:42.812Z,24.10
2018-05-24T01:37:22.280Z,25.80
2018-05-24T01:39:49.867Z,26.97
2018-05-24T01:42:17.429Z,26.97
2018-05-24T01:44:45.012Z,24.30
2018-05-24T01:47:12.574Z,26.73
2018-05-24T01:49:40.146Z,24.30
2018-05-24T01:52:07.698Z,23.60
2018-05-24T01:54:35.309Z,26.30
2018-05-24T01:57:02.857Z,26.60
2018-05-24T01:59:31.205Z,31.23
2018-05-24T02:01:58.769Z,30.50
2018-05-24T02:04:26.345Z,30.23
2018-05-24T02:06:54.698Z,31.00
2018-05-24T02:09:22.259Z,31.80
2018-05-24T02:11:49.839Z,34.43
2018-05-24T02:14:18.166Z,31.17
2018-05-24T02:16:51.306Z,31.40
2018-05-24T02:19:26.528Z,29.37
2018-05-24T02:22:00.984Z,29.77
2018-05-24T02:24:37.810Z,29.53
2018-05-24T02:27:14.001Z,29.30
2018-05-24T02:29:49.905Z,32.73
2018-05-24T02:32:26.239Z,31.87
2018-05-24T02:35:01.989Z,29.80
2018-05-24T02:37:39.028Z,28.33
2018-05-24T02:40:14.497Z,28.23
2018-05-24T02:42:50.109Z,28.13
2018-05-24T02:45:26.378Z,27.20
2018-05-24T02:48:02.153Z,28.63
2018-05-24T02:50:38.672Z,28.13
2018-05-24T02:53:15.046Z,30.20
2018-05-24T02:55:42.626Z,32.10
2018-05-24T02:58:10.181Z,33.20
2018-05-24T03:00:37.761Z,33.83
2018-05-24T03:03:05.320Z,33.00
2018-05-24T03:05:32.885Z,31.83
2018-05-24T03:08:00.442Z,35.57
2018-05-24T03:10:28.043Z,34.50
2018-05-24T03:12:56.391Z,34.57
2018-05-24T03:15:23.981Z,35.80
2018-05-24T03:17:52.300Z,32.93
2018-05-24T03:20:19.921Z,33.83
2018-05-24T03:22:48.238Z,31.80
2018-05-24T03:25:15.825Z,33.57
2018-05-24T03:27:43.379Z,33.60
2018-05-24T03:30:10.963Z,34.37
2018-05-24T03:32:39.285Z,35.67
2018-05-24T03:35:06.909Z,34.17
2018-05-24T03:37:34.446Z,32.23
2018-05-24T03:40:02.024Z,30.73
2018-05-24T03:42:29.592Z,30.80
2018-05-24T03:44:57.929Z,29.23
2018-05-24T03:47:25.497Z,29.10
2018-05-24T03:49:53.063Z,30.10
2018-05-24T03:52:20.644Z,31.97
2018-05-24T03:54:48.196Z,34.50
2018-05-24T03:57:15.780Z,32.80
2018-05-24T04:00:04.932Z,33.17
2018-05-24T04:02:44.245Z,32.57
2018-05-24T04:05:11.833Z,32.40
2018-05-24T04:07:40.153Z,32.60
2018-05-24T04:10:07.731Z,30.23
2018-05-24T04:12:35.299Z,30.60
2018-05-24T04:15:03.633Z,29.03
2018-05-24T04:17:31.497Z,29.63
2018-05-24T04:19:59.062Z,30.57
2018-05-24T04:22:26.660Z,30.97
2018-05-24T04:24:54.217Z,31.00
2018-05-24T04:27:22.585Z,30.87
2018-05-24T04:29:50.149Z,29.57
2018-05-24T04:32:17.821Z,30.07
2018-05-24T04:34:47.007Z,31.40
2018-05-24T04:37:14.592Z,30.50
2018-05-24T04:39:42.581Z,29.67
2018-05-24T04:42:11.359Z,28.13
2018-05-24T04:44:38.984Z,28.43
2018-05-24T04:47:06.583Z,29.97
2018-05-24T04:49:34.153Z,28.60
2018-05-24T04:52:02.532Z,27.70
2018-05-24T04:54:30.857Z,28.03
2018-05-24T04:56:58.437Z,26.70
2018-05-24T04:59:26.115Z,26.63
2018-05-24T05:01:53.743Z,26.37
2018-05-24T05:04:22.215Z,26.00
2018-05-24T05:06:49.818Z,26.53
2018-05-24T05:09:19.838Z,26.20
2018-05-24T05:11:47.426Z,24.80
2018-05-24T05:14:15.749Z,27.07
2018-05-24T05:16:43.317Z,23.60
2018-05-24T05:19:10.861Z,26.90
2018-05-24T05:21:38.439Z,25.83
2018-05-24T05:24:05.979Z,25.57
2018-05-24T05:26:33.549Z,25.30
2018-05-24T05:29:01.123Z,22.60
2018-05-24T05:34:02.692Z,23.47
2018-05-24T05:36:30.266Z,26.20
2018-05-24T05:38:57.833Z,28.30
2018-05-24T05:41:25.412Z,27.60
2018-05-24T05:43:53.733Z,25.57
2018-05-24T05:46:21.454Z,24.37
2018-05-24T05:48:49.783Z,25.77
2018-05-24T05:51:17.354Z,24.50
2018-05-24T05:53:44.922Z,29.27
2018-05-24T05:56:12.525Z,25.57
2018-05-24T05:58:40.835Z,25.50
2018-05-24T06:01:08.450Z,25.10
2018-05-24T06:03:36.785Z,24.67
2018-05-24T06:06:04.361Z,24.90
2018-05-24T06:08:31.917Z,21.97
2018-05-24T06:10:59.503Z,21.70
2018-05-24T06:13:27.049Z,21.10
2018-05-24T06:15:54.629Z,21.50
2018-05-24T06:18:22.946Z,19.63
2018-05-24T06:20:50.519Z,18.93
2018-05-24T06:23:18.060Z,19.30
2018-05-24T06:25:45.595Z,19.67
2018-05-24T06:28:13.941Z,20.27
2018-05-24T06:30:41.504Z,18.37
2018-05-24T06:54:14.005Z,23.20
2018-05-24T06:56:41.575Z,22.53
2018-05-24T06:59:09.166Z,20.20
2018-05-24T07:01:37.516Z,20.83
2018-05-24T07:04:05.076Z,19.13
2018-05-24T07:06:32.653Z,22.07
2018-05-24T07:09:00.201Z,20.77
2018-05-24T07:11:27.772Z,21.07
2018-05-24T07:13:55.324Z,19.57
2018-05-24T07:16:22.905Z,19.43
2018-05-24T07:18:51.223Z,19.30
2018-05-24T07:21:18.798Z,18.77
2018-05-24T07:23:46.345Z,18.50
2018-05-24T07:26:13.933Z,17.43
2018-05-24T07:28:41.489Z,19.40
2018-05-24T07:31:09.057Z,21.63
2018-05-24T07:33:36.606Z,19.47
2018-05-24T07:36:04.163Z,21.20
2018-05-24T07:38:31.735Z,18.17
2018-05-24T07:40:59.299Z,18.17
2018-05-24T07:46:00.815Z,17.87
2018-05-24T07:48:28.384Z,19.90
2018-05-24T07:50:55.944Z,16.90
2018-05-24T07:53:23.524Z,17.47
2018-05-24T07:55:51.077Z,17.10
2018-05-24T07:58:18.659Z,18.70
2018-05-24T08:00:46.212Z,18.03
2018-05-24T08:03:13.791Z,20.20
2018-05-24T08:05:41.367Z,16.40
2018-05-24T08:08:08.946Z,17.57
2018-05-24T08:10:37.289Z,19.23
2018-05-24T08:13:04.865Z,18.70
2018-05-24T08:15:32.421Z,16.97
2018-05-24T08:17:59.995Z,19.20
2018-05-24T08:20:28.321Z,18.57
2018-05-24T08:22:55.899Z,20.07
2018-05-24T08:25:23.469Z,17.53
2018-05-24T08:27:51.065Z,18.77
2018-05-24T08:30:18.649Z,17.80
2018-05-24T08:32:46.216Z,20.13
2018-05-24T08:35:13.764Z,18.90
2018-05-24T08:37:41.346Z,18.70
2018-05-24T08:40:08.890Z,20.50
2018-05-24T08:42:36.446Z,17.27
2018-05-24T08:45:04.014Z,18.10
2018-05-24T08:47:31.589Z,18.60
2018-05-24T08:49:59.143Z,19.87
2018-05-24T08:52:26.712Z,19.10
2018-05-24T08:54:54.269Z,16.93
2018-05-24T08:57:21.833Z,15.90
2018-05-24T08:59:49.392Z,16.50
2018-05-24T09:02:16.966Z,16.83
2018-05-24T09:04:44.535Z,17.77
2018-05-24T09:07:12.113Z,16.20
2018-05-24T09:09:40.436Z,17.00
2018-05-24T09:12:08.781Z,15.37
2018-05-24T09:14:37.102Z,14.90
2018-05-24T09:17:04.681Z,17.30
2018-05-24T09:19:32.247Z,16.00
2018-05-24T09:21:59.821Z,17.80
2018-05-24T09:24:27.377Z,26.27
2018-05-24T09:26:54.986Z,19.90
2018-05-24T09:29:22.612Z,19.73
2018-05-24T09:31:50.156Z,17.20
2018-05-24T09:34:17.714Z,16.40
2018-05-24T09:36:45.314Z,16.10
2018-05-24T09:39:12.862Z,17.70
2018-05-24T09:41:41.211Z,15.43
2018-05-24T09:44:08.761Z,14.90
2018-05-24T09:46:36.312Z,15.57
2018-05-24T09:49:03.891Z,16.77
2018-05-24T09:51:31.437Z,18.03
2018-05-24T09:53:59.013Z,16.00
2018-05-24T09:56:26.554Z,15.20
2018-05-24T09:58:54.117Z,17.00
2018-05-24T10:01:22.464Z,14.83
2018-05-24T10:03:50.041Z,16.43
2018-05-24T10:06:17.585Z,17.47
2018-05-24T10:08:45.153Z,16.77
2018-05-24T10:11:12.734Z,15.00
2018-05-24T10:13:40.310Z,16.53
2018-05-24T10:16:07.912Z,15.80
2018-05-24T10:18:36.244Z,17.10
2018-05-24T10:21:03.793Z,15.73
2018-05-24T10:23:31.386Z,18.40
2018-05-24T10:25:59.722Z,17.20
2018-05-24T10:28:27.297Z,16.70
2018-05-24T10:30:54.851Z,18.77
2018-05-24T10:33:22.413Z,17.10
2018-05-24T10:35:49.972Z,15.30
2018-05-24T10:38:17.538Z,16.13
2018-05-24T10:40:45.090Z,15.20
2018-05-24T10:43:12.657Z,14.23
2018-05-24T10:45:40.240Z,15.10
2018-05-24T10:48:07.834Z,15.27
2018-05-24T10:50:35.381Z,15.17
2018-05-24T10:53:03.718Z,14.67
2018-05-24T10:55:31.282Z,15.83
2018-05-24T10:57:58.862Z,15.97
2018-05-24T11:00:26.424Z,17.40
2018-05-24T11:02:54.812Z,15.30
2018-05-24T11:05:22.321Z,16.13
2018-05-24T11:07:49.894Z,14.90
2018-05-24T11:10:17.429Z,17.70
2018-05-24T11:12:44.993Z,17.97
2018-05-24T11:15:12.542Z,20.20
2018-05-24T11:17:40.113Z,16.60
2018-05-24T11:20:07.657Z,17.03
2018-05-24T11:22:35.220Z,16.43
2018-05-24T11:25:02.772Z,16.23
2018-05-24T11:27:30.334Z,17.60
2018-05-24T11:29:57.869Z,17.03
2018-05-24T11:32:26.205Z,17.07
2018-05-24T11:34:53.756Z,18.47
2018-05-24T11:37:21.407Z,18.47
2018-05-24T11:39:48.897Z,18.90
2018-05-24T11:42:16.462Z,18.80
2018-05-24T11:44:44.009Z,18.60
2018-05-24T11:47:11.587Z,18.40
2018-05-24T11:49:39.134Z,19.10
2018-05-24T11:52:06.688Z,19.57
2018-05-24T11:54:34.252Z,19.07
2018-05-24T11:57:01.797Z,19.70
2018-05-24T11:59:29.373Z,17.63
2018-05-24T12:01:56.916Z,16.03
2018-05-24T12:04:24.485Z,16.03
2018-05-24T12:06:52.043Z,18.77
2018-05-24T12:09:19.602Z,15.77
2018-05-24T12:11:47.150Z,16.53
2018-05-24T12:14:14.747Z,17.40
2018-05-24T12:16:42.289Z,15.47
2018-05-24T12:19:09.862Z,18.70
2018-05-24T12:21:37.420Z,15.37
2018-05-24T12:24:04.993Z,17.63
2018-05-24T12:26:32.552Z,16.20
2018-05-24T12:29:00.126Z,18.20
2018-05-24T12:31:28.449Z,17.47
2018-05-24T12:33:56.030Z,16.33
2018-05-24T12:36:23.593Z,18.43
2018-05-24T12:38:51.173Z,15.47
2018-05-24T12:41:18.768Z,14.97
2018-05-24T12:43:46.365Z,15.93
2018-05-24T12:46:13.951Z,14.43
2018-05-24T12:48:41.517Z,17.43
2018-05-24T12:51:09.111Z,14.80
2018-05-24T12:53:36.678Z,13.27
2018-05-24T12:56:04.251Z,16.40
2018-05-24T12:58:31.833Z,13.00
2018-05-24T13:00:59.378Z,13.30
2018-05-24T13:03:26.957Z,15.93
2018-05-24T13:05:54.500Z,13.30
2018-05-24T13:08:22.852Z,13.53
2018-05-24T13:10:50.393Z,13.87
2018-05-24T13:13:18.729Z,11.10
2018-05-24T13:15:46.296Z,12.40
2018-05-24T13:18:13.878Z,12.33
2018-05-24T13:20:42.194Z,10.20
2018-05-24T13:23:09.758Z,11.33
2018-05-24T13:25:37.300Z,10.80
2018-05-24T13:28:04.913Z,10.37
2018-05-24T13:30:32.460Z,10.67
2018-05-24T13:33:00.032Z,11.30
2018-05-24T13:35:27.592Z,10.83
2018-05-24T13:37:55.191Z,10.70
2018-05-24T13:40:23.521Z,12.20
2018-05-24T13:42:51.094Z,13.20
2018-05-24T13:45:18.682Z,10.57
2018-05-24T13:47:46.237Z,13.53
2018-05-24T13:50:14.568Z,12.07
2018-05-24T13:52:42.216Z,11.20
2018-05-24T13:55:09.709Z,12.93
2018-05-24T13:57:46.161Z,9.73
2018-05-24T14:00:13.731Z,14.90
2018-05-24T14:02:41.319Z,10.10
2018-05-24T14:05:08.952Z,9.30
2018-05-24T14:07:37.213Z,10.90
2018-05-24T14:10:04.773Z,9.90
2018-05-24T14:12:32.352Z,10.80
2018-05-24T14:14:59.922Z,11.07
2018-05-24T14:17:27.534Z,11.70
2018-05-24T14:19:55.852Z,10.17
2018-05-24T14:22:23.411Z,9.60
2018-05-24T14:24:51.001Z,8.00
2018-05-24T14:27:19.328Z,8.70
2018-05-24T14:29:46.953Z,9.80
2018-05-24T14:32:15.263Z,8.40
2018-05-24T14:34:42.819Z,8.10
2018-05-24T14:37:10.361Z,8.80
2018-05-24T14:39:37.920Z,10.57
2018-05-24T14:42:06.225Z,11.03
2018-05-24T14:44:33.789Z,7.73
2018-05-24T14:47:01.341Z,7.50
2018-05-24T14:49:28.917Z,10.93
2018-05-24T14:51:57.262Z,7.30
2018-05-24T14:54:24.835Z,8.17
2018-05-24T14:56:52.390Z,10.13
2018-05-24T14:59:19.961Z,7.00
2018-05-24T15:01:47.516Z,9.20
2018-05-24T15:04:15.098Z,9.50
2018-05-24T15:06:42.769Z,6.90
2018-05-24T15:09:10.364Z,7.77
2018-05-24T15:11:38.668Z,8.73
2018-05-24T15:14:06.243Z,8.47
2018-05-24T15:16:33.809Z,8.47
2018-05-24T15:19:01.385Z,9.37
2018-05-24T15:21:28.923Z,7.00
2018-05-24T15:23:56.517Z,10.07
2018-05-24T15:26:24.065Z,10.40
2018-05-24T15:28:51.622Z,8.73
2018-05-24T15:31:19.168Z,10.47
2018-05-24T15:33:46.718Z,8.77
2018-05-24T15:36:14.290Z,8.70
2018-05-24T15:38:41.876Z,8.50
2018-05-24T15:41:09.460Z,9.30
2018-05-24T15:43:37.825Z,8.10
2018-05-24T15:46:05.405Z,9.33
2018-05-24T15:48:33.743Z,8.97
2018-05-24T15:51:01.289Z,10.40
2018-05-24T15:53:28.870Z,10.27
2018-05-24T15:55:56.411Z,8.50
2018-05-24T15:58:23.985Z,9.80
2018-05-24T16:00:51.520Z,9.40
2018-05-24T16:03:19.081Z,8.90
2018-05-24T16:05:46.638Z,9.70
2018-05-24T16:08:14.185Z,9.63
2018-05-24T16:10:41.761Z,8.93
2018-05-24T16:13:09.305Z,8.53
2018-05-24T16:15:36.888Z,9.80
2018-05-24T16:18:04.436Z,9.70
2018-05-24T16:20:32.004Z,9.67
2018-05-24T16:22:59.565Z,9.93
2018-05-24T16:25:27.434Z,9.10
2018-05-24T16:27:54.983Z,9.10
2018-05-24T16:30:22.563Z,9.80
2018-05-24T16:32:50.121Z,9.17
2018-05-24T16:35:17.681Z,8.47
2018-05-24T16:37:45.232Z,8.90
2018-05-24T16:40:12.805Z,9.23
2018-05-24T16:42:40.354Z,10.97
2018-05-24T16:45:07.914Z,9.63
2018-05-24T16:47:35.463Z,8.87
2018-05-24T16:50:03.049Z,8.77
2018-05-24T16:52:30.590Z,9.83
2018-05-24T16:54:58.178Z,10.50
2018-05-24T16:57:25.725Z,10.73
2018-05-24T16:59:53.301Z,10.10
2018-05-24T17:02:21.613Z,10.37
2018-05-24T17:04:49.947Z,9.73
2018-05-24T17:07:17.549Z,10.07
2018-05-24T17:09:45.899Z,9.50
2018-05-24T17:12:13.468Z,9.60
2018-05-24T17:14:41.029Z,8.60
2018-05-24T17:17:08.593Z,9.10
2018-05-24T17:19:36.181Z,8.67
2018-05-24T17:22:03.718Z,8.17
2018-05-24T17:24:32.065Z,7.53
2018-05-24T17:27:00.387Z,6.60
2018-05-24T17:29:28.774Z,7.17
2018-05-24T17:31:56.322Z,7.23
2018-05-24T17:34:24.678Z,7.40
2018-05-24T17:36:52.225Z,7.93
2018-05-24T17:39:19.800Z,8.10
2018-05-24T17:41:47.345Z,7.70
2018-05-24T17:44:14.908Z,7.60
2018-05-24T17:46:42.474Z,7.40
2018-05-24T17:49:10.981Z,8.73
2018-05-24T17:51:39.332Z,8.27
2018-05-24T17:54:06.931Z,7.87
2018-05-24T17:56:35.257Z,8.07
2018-05-24T17:59:02.845Z,7.40
2018-05-24T18:01:30.417Z,7.20
2018-05-24T18:03:58.790Z,7.70
2018-05-24T18:06:27.135Z,7.60
2018-05-24T18:08:54.698Z,7.10
2018-05-24T18:11:23.014Z,6.97
2018-05-24T18:13:51.334Z,5.90
2018-05-24T18:16:18.887Z,5.07
2018-05-24T18:18:46.425Z,5.77
2018-05-24T18:21:14.800Z,6.10
2018-05-24T18:23:42.322Z,8.80
2018-05-24T18:26:09.910Z,6.80
2018-05-24T18:28:38.231Z,6.77
2018-05-24T18:31:05.786Z,7.47
2018-05-24T18:33:33.347Z,7.17
2018-05-24T18:36:00.952Z,8.30
2018-05-24T18:38:28.485Z,7.30
2018-05-24T18:40:56.057Z,6.10
2018-05-24T18:43:23.625Z,6.40
2018-05-24T18:45:51.205Z,7.87
2018-05-24T18:48:19.509Z,8.70
2018-05-24T18:50:47.069Z,9.57
2018-05-24T18:53:14.647Z,12.50
2018-05-24T18:55:42.225Z,12.83
2018-05-24T18:58:10.439Z,11.87
2018-05-24T19:00:38.056Z,12.30
2018-05-24T19:03:05.625Z,16.43
2018-05-24T19:05:33.209Z,16.87
2018-05-24T19:08:00.764Z,20.37
2018-05-24T19:10:28.357Z,13.40
2018-05-24T19:12:56.670Z,14.60
2018-05-24T19:15:24.245Z,15.70
2018-05-24T19:17:51.794Z,12.87
2018-05-24T19:20:19.377Z,15.20
2018-05-24T19:22:46.914Z,15.57
2018-05-24T19:25:14.487Z,17.53
2018-05-24T19:27:42.049Z,17.07
2018-05-24T19:30:09.653Z,14.67
2018-05-24T19:32:37.965Z,17.20
2018-05-24T19:35:05.533Z,20.00
2018-05-24T19:37:33.074Z,16.90
2018-05-24T19:40:00.647Z,19.77
2018-05-24T19:42:28.188Z,18.10
2018-05-24T19:44:55.766Z,18.03
2018-05-24T19:47:23.323Z,20.47
2018-05-24T19:49:50.914Z,18.93
2018-05-24T19:52:18.478Z,18.13
2018-05-24T19:54:46.045Z,20.07
2018-05-24T19:57:13.606Z,18.57
2018-05-24T19:59:41.186Z,17.57
2018-05-24T20:02:09.506Z,20.90
2018-05-24T20:04:37.136Z,21.67
2018-05-24T20:07:05.447Z,20.20
2018-05-24T20:09:33.037Z,21.60
2018-05-24T20:12:00.587Z,19.67
2018-05-24T20:14:28.153Z,22.43
2018-05-24T20:16:55.715Z,23.90
2018-05-24T20:19:23.311Z,22.53
2018-05-24T20:21:51.644Z,23.10
2018-05-24T20:24:19.231Z,25.40
2018-05-24T20:26:47.545Z,25.00
2018-05-24T20:29:15.096Z,25.50
2018-05-24T20:31:42.671Z,28.83
2018-05-24T20:34:10.238Z,26.10
2018-05-24T20:36:37.836Z,27.50
2018-05-24T20:39:06.401Z,30.87
2018-05-24T20:41:33.991Z,25.47
2018-05-24T20:44:01.506Z,27.90
2018-05-24T20:46:29.110Z,28.83
2018-05-24T20:48:57.425Z,25.73
2018-05-24T20:51:25.006Z,28.17
2018-05-24T20:53:52.560Z,24.77
2018-05-24T20:56:20.955Z,27.77
2018-05-24T20:58:48.478Z,31.10
2018-05-24T21:01:16.062Z,28.83
2018-05-24T21:03:43.659Z,26.37
2018-05-24T21:06:11.266Z,27.27
2018-05-24T21:08:38.869Z,28.90
2018-05-24T21:11:06.467Z,28.80
2018-05-24T21:13:34.789Z,32.63
2018-05-24T21:16:02.375Z,27.50
2018-05-24T21:18:29.933Z,28.00
2018-05-24T21:20:57.520Z,30.80
2018-05-24T21:23:25.874Z,28.67
2018-05-24T21:25:53.460Z,28.70
2018-05-24T21:28:21.778Z,34.40
2018-05-24T21:30:49.346Z,31.47
2018-05-24T21:33:16.899Z,33.50
2018-05-24T21:35:44.474Z,32.77
2018-05-24T21:38:12.024Z,31.40
2018-05-24T21:40:39.603Z,30.70
2018-05-24T21:43:07.170Z,32.77
2018-05-24T21:45:34.786Z,33.67
2018-05-24T21:48:02.337Z,31.80
2018-05-24T21:50:29.922Z,32.00
2018-05-24T21:52:57.481Z,33.90
2018-05-24T21:55:25.066Z,34.00
2018-05-24T21:57:52.634Z,40.33
2018-05-24T22:00:21.002Z,36.03
2018-05-24T22:02:48.580Z,38.80
2018-05-24T22:05:16.149Z,32.40
2018-05-24T22:07:43.693Z,32.20
2018-05-24T22:10:11.285Z,33.60
2018-05-24T22:12:39.599Z,32.90
2018-05-24T22:15:07.169Z,32.80
2018-05-24T22:17:34.718Z,31.50
2018-05-24T22:20:02.290Z,30.33
2018-05-24T22:22:29.850Z,31.50
2018-05-24T22:24:57.449Z,32.40
2018-05-24T22:27:24.997Z,32.53
2018-05-24T22:29:53.370Z,34.80
2018-05-24T22:32:20.945Z,36.13
2018-05-24T22:34:48.501Z,36.20
2018-05-24T22:37:16.073Z,37.07
2018-05-24T22:39:44.384Z,38.40
2018-05-24T22:42:11.954Z,39.30
2018-05-24T22:44:39.504Z,42.90
2018-05-24T22:47:07.082Z,39.77
2018-05-24T22:49:34.624Z,45.30
2018-05-24T22:52:02.193Z,46.93
2018-05-24T22:54:29.744Z,45.87
2018-05-24T22:56:57.313Z,39.90
2018-05-24T22:59:24.929Z,47.40
2018-05-24T23:01:53.247Z,41.47
2018-05-24T23:04:20.798Z,40.00
2018-05-24T23:06:48.371Z,40.10
2018-05-24T23:09:15.962Z,33.50
2018-05-24T23:11:43.566Z,33.97
2018-05-24T23:14:11.882Z,50.20
2018-05-24T23:16:39.463Z,34.30
2018-05-24T23:19:07.009Z,40.60
2018-05-24T23:21:40.925Z,36.67
2018-05-24T23:24:08.465Z,28.70
2018-05-24T23:26:36.053Z,29.47
2018-05-24T23:29:04.365Z,22.50
2018-05-24T23:31:34.773Z,26.23
2018-05-24T23:34:02.329Z,22.43
2018-05-24T23:36:29.904Z,23.73
2018-05-24T23:38:58.228Z,24.77
2018-05-24T23:41:25.800Z,22.57
2018-05-24T23:43:53.350Z,22.33
2018-05-24T23:46:20.921Z,19.97
2018-05-24T23:48:48.522Z,21.27
2018-05-24T23:51:16.073Z,17.00
2018-05-24T23:53:43.627Z,17.13
2018-05-24T23:56:11.189Z,18.33
2018-05-24T23:58:38.737Z,21.77
